.
WxDataArchive / Data Records for 2006-01-04
2006-01-03 January 2006 2006-01-05

Data Records for Wednesday, 04 January 2006

Time	Temp	Chill	HIndex	Humid	Dewpt	 Wind 	HiWind	WindDir	Rain 	Barom 
-----	----	-----	------	-----	-----	------	------	-------	-----	----- 
00:00	41.9	41.9	41.9	96	40.8	1	3	112	0.00	29.871 
00:05	41.9	41.9	41.9	96	40.8	1	4	135	0.00	29.871 
00:10	41.9	41.9	41.9	96	40.8	1	4	112	0.00	29.871 
00:15	41.9	41.9	41.9	96	40.8	1	3	90	0.00	29.860 
00:20	41.9	41.9	41.9	96	40.8	1	3	112	0.00	29.860 
00:25	42.1	42.1	42.1	96	41.0	2	4	112	0.00	29.860 
00:30	42.1	42.1	42.1	96	41.0	1	4	112	0.00	29.852 
00:35	42.1	42.1	42.1	96	41.0	1	3	112	0.00	29.852 
00:40	42.1	42.1	42.1	96	41.0	1	3	112	0.00	29.852 
00:45	42.2	42.2	42.2	96	41.1	1	3	112	0.00	29.854 
00:50	42.2	42.2	42.2	96	41.1	1	3	112	0.00	29.854 
00:55	42.2	42.2	42.2	96	41.1	1	2	135	0.00	29.854 
01:00	42.3	42.3	42.3	96	41.2	1	2	135	0.00	29.843 
01:05	42.3	42.3	42.3	96	41.2	1	2	112	0.00	29.843 
01:10	42.3	42.3	42.3	96	41.2	1	2	112	0.00	29.843 
01:15	42.3	42.3	42.3	96	41.2	1	2	112	0.00	29.839 
01:20	42.5	42.5	42.5	96	41.4	0	2	112	0.00	29.839 
01:25	42.5	42.5	42.5	96	41.4	1	2	112	0.00	29.839 
01:30	42.5	42.5	42.5	96	41.4	1	3	112	0.00	29.846 
01:35	42.5	42.5	42.5	96	41.4	2	4	112	0.00	29.846 
01:40	42.6	42.6	42.6	96	41.5	1	4	68	0.00	29.846 
01:45	42.6	42.6	42.6	96	41.5	1	3	90	0.00	29.846 
01:50	42.6	42.6	42.6	96	41.5	2	4	112	0.00	29.846 
01:55	42.8	42.8	42.8	96	41.7	1	3	112	0.00	29.846 
02:00	42.8	42.8	42.8	96	41.7	1	5	112	0.00	29.836 
02:05	42.8	42.8	42.8	96	41.7	1	3	112	0.00	29.836 
02:10	42.9	42.9	42.9	96	41.8	1	2	112	0.00	29.836 
02:15	42.9	42.9	42.9	96	41.8	1	2	112	0.00	29.837 
02:20	42.9	42.9	42.9	96	41.8	1	3	112	0.00	29.837 
02:25	43.1	43.1	43.1	96	42.0	1	3	248	0.00	29.837 
02:30	43.1	43.1	43.1	96	42.0	0	2	248	0.00	29.853 
02:35	43.1	43.1	43.1	96	42.0	1	3	248	0.01	29.853 
02:40	43.2	43.2	43.2	96	42.1	1	2	248	0.00	29.853 
02:45	43.2	43.2	43.2	96	42.1	0	2	315	0.00	29.839 
02:50	43.2	43.2	43.2	96	42.1	0	2	292	0.00	29.839 
02:55	43.2	43.2	43.2	96	42.1	0	2	315	0.00	29.839 
03:00	43.3	43.3	43.3	96	42.2	0	2	315	0.00	29.837 
03:05	43.3	43.3	43.3	96	42.2	1	3	248	0.00	29.837 
03:10	43.3	43.3	43.3	96	42.2	0	2	248	0.00	29.837 
03:15	43.5	43.5	43.5	96	42.4	0	2	270	0.00	29.835 
03:20	43.5	43.5	43.5	95	42.2	1	3	90	0.00	29.835 
03:25	43.5	43.5	43.5	95	42.2	1	3	90	0.00	29.835 
03:30	43.5	43.5	43.5	95	42.2	1	2	112	0.00	29.833 
03:35	43.6	43.6	43.6	95	42.3	1	3	225	0.00	29.833 
03:40	43.6	43.6	43.6	95	42.3	0	3	248	0.00	29.833 
03:45	43.6	43.6	43.6	95	42.3	1	3	270	0.00	29.820 
03:50	43.6	43.6	43.6	95	42.3	1	6	248	0.00	29.820 
03:55	43.8	43.8	43.8	95	42.5	1	3	270	0.00	29.820 
04:00	43.8	43.8	43.8	95	42.5	1	4	248	0.00	29.810 
04:05	43.8	43.8	43.8	95	42.5	2	5	270	0.00	29.810 
04:10	43.8	43.8	43.8	95	42.5	2	4	248	0.00	29.810 
04:15	43.8	43.8	43.8	95	42.5	1	4	270	0.00	29.807 
04:20	43.6	43.6	43.6	95	42.3	2	5	248	0.00	29.807 
04:25	43.6	43.6	43.6	94	42.0	3	6	248	0.00	29.807 
04:30	43.6	43.6	43.6	94	42.0	2	12	248	0.00	29.800 
04:35	43.6	43.6	43.6	94	42.0	3	7	248	0.00	29.800 
04:40	43.6	43.6	43.6	93	41.7	2	5	225	0.00	29.800 
04:45	43.6	43.6	43.6	93	41.7	1	5	248	0.00	29.788 
04:50	43.6	43.6	43.6	93	41.7	2	6	248	0.00	29.788 
04:55	43.6	43.6	43.6	93	41.7	2	7	248	0.00	29.788 
05:00	43.6	43.6	43.6	93	41.7	2	6	248	0.00	29.781 
05:05	43.5	43.5	43.5	93	41.6	2	5	248	0.00	29.781 
05:10	43.5	43.5	43.5	93	41.6	3	9	248	0.00	29.781 
05:15	43.5	43.5	43.5	92	41.3	3	7	248	0.00	29.785 
05:20	43.5	41.4	43.5	92	41.3	4	10	270	0.00	29.785 
05:25	43.5	41.4	43.5	92	41.3	4	10	248	0.00	29.785 
05:30	43.5	43.5	43.5	92	41.3	3	7	248	0.00	29.778 
05:35	43.5	43.5	43.5	92	41.3	2	5	248	0.00	29.778 
05:40	43.5	43.5	43.5	92	41.3	3	9	248	0.00	29.778 
05:45	43.3	41.1	43.3	92	41.1	4	10	270	0.00	29.770 
05:50	43.3	43.3	43.3	92	41.1	2	11	248	0.00	29.770 
05:55	43.3	43.3	43.3	92	41.1	3	10	248	0.00	29.770 
06:00	43.2	43.2	43.2	92	41.0	3	9	270	0.00	29.751 
06:05	43.2	43.2	43.2	92	41.0	3	7	270	0.00	29.751 
06:10	43.2	43.2	43.2	93	41.3	2	8	248	0.00	29.751 
06:15	43.1	43.1	43.1	93	41.2	2	5	68	0.00	29.742 
06:20	43.1	43.1	43.1	93	41.2	3	9	248	0.00	29.742 
06:25	43.1	43.1	43.1	93	41.2	3	7	248	0.00	29.742 
06:30	43.1	43.1	43.1	93	41.2	1	5	248	0.00	29.755 
06:35	43.1	43.1	43.1	93	41.2	2	6	248	0.00	29.755 
06:40	42.9	42.9	42.9	93	41.0	3	11	248	0.00	29.755 
06:45	42.9	42.9	42.9	93	41.0	2	5	248	0.00	29.749 
06:50	42.9	42.9	42.9	93	41.0	2	7	248	0.00	29.749 
06:55	42.9	42.9	42.9	93	41.0	1	5	270	0.00	29.749 
07:00	42.9	42.9	42.9	93	41.0	2	10	248	0.00	29.744 
07:05	42.9	42.9	42.9	93	41.0	3	7	248	0.00	29.744 
07:10	42.9	42.9	42.9	93	41.0	2	6	248	0.00	29.744 
07:15	42.9	42.9	42.9	93	41.0	2	4	248	0.00	29.746 
07:20	42.9	42.9	42.9	93	41.0	2	7	248	0.00	29.746 
07:25	42.8	42.8	42.8	93	40.9	3	7	248	0.00	29.746 
07:30	42.8	42.8	42.8	93	40.9	2	7	248	0.00	29.741 
07:35	42.8	42.8	42.8	91	40.4	2	7	248	0.00	29.741 
07:40	42.8	42.8	42.8	93	40.9	1	4	248	0.00	29.741 
07:45	42.8	42.8	42.8	93	40.9	2	5	270	0.00	29.742 
07:50	42.8	42.8	42.8	93	40.9	1	5	248	0.00	29.742 
07:55	42.8	42.8	42.8	93	40.9	2	5	248	0.00	29.742 
08:00	42.8	42.8	42.8	93	40.9	2	5	112	0.00	29.728 
08:05	42.8	42.8	42.8	93	40.9	1	4	45	0.00	29.728 
08:10	42.8	42.8	42.8	93	40.9	2	10	68	0.00	29.728 
08:15	42.9	42.9	42.9	93	41.0	1	3	45	0.00	29.724 
08:20	42.9	42.9	42.9	93	41.0	2	4	248	0.00	29.724 
08:25	42.9	42.9	42.9	92	40.7	1	5	248	0.00	29.724 
08:30	42.9	42.9	42.9	92	40.7	1	4	270	0.00	29.721 
08:35	42.9	42.9	42.9	92	40.7	2	5	248	0.00	29.721 
08:40	43.1	43.1	43.1	92	40.9	2	6	248	0.00	29.721 
08:45	43.1	43.1	43.1	92	40.9	1	3	45	0.00	29.709 
08:50	43.1	43.1	43.1	92	40.9	1	5	248	0.00	29.709 
08:55	43.1	43.1	43.1	92	40.9	1	4	248	0.00	29.709 
09:00	43.2	43.2	43.2	92	41.0	1	4	90	0.00	29.711 
09:05	43.2	43.2	43.2	92	41.0	1	5	248	0.00	29.711 
09:10	43.2	43.2	43.2	92	41.0	1	5	270	0.00	29.711 
09:15	43.3	43.3	43.3	92	41.1	1	4	248	0.00	29.724 
09:20	43.3	43.3	43.3	92	41.1	1	4	248	0.00	29.724 
09:25	43.5	43.5	43.5	91	41.0	1	4	270	0.00	29.724 
09:30	43.5	43.5	43.5	91	41.0	1	5	248	0.00	29.716 
09:35	43.5	43.5	43.5	91	41.0	2	4	248	0.00	29.716 
09:40	43.6	43.6	43.6	90	40.9	2	4	248	0.00	29.716 
09:45	43.8	43.8	43.8	90	41.1	2	7	225	0.00	29.712 
09:50	43.8	43.8	43.8	90	41.1	1	3	248	0.00	29.712 
09:55	43.9	43.9	43.9	90	41.2	2	5	248	0.00	29.712 
10:00	43.9	43.9	43.9	90	41.2	1	4	248	0.00	29.709 
10:05	43.9	43.9	43.9	90	41.2	1	4	270	0.00	29.709 
10:10	44.1	44.1	44.1	89	41.1	2	4	248	0.00	29.709 
10:15	44.1	44.1	44.1	89	41.1	2	7	270	0.00	29.702 
10:20	44.1	44.1	44.1	89	41.1	2	5	248	0.00	29.702 
10:25	44.2	44.2	44.2	89	41.2	1	4	248	0.00	29.702 
10:30	44.2	44.2	44.2	89	41.2	1	4	270	0.00	29.697 
10:35	44.2	44.2	44.2	89	41.2	1	5	248	0.00	29.697 
10:40	44.3	44.3	44.3	89	41.3	2	5	248	0.00	29.697 
10:45	44.3	44.3	44.3	88	41.0	2	5	248	0.00	29.693 
10:50	44.5	44.5	44.5	88	41.2	2	5	248	0.00	29.693 
10:55	44.5	44.5	44.5	88	41.2	2	4	248	0.00	29.693 
11:00	44.6	44.6	44.6	88	41.3	2	6	248	0.00	29.687 
11:05	44.6	44.6	44.6	88	41.3	2	4	248	0.00	29.687 
11:10	44.6	44.6	44.6	88	41.3	2	5	248	0.00	29.687 
11:15	44.6	44.6	44.6	88	41.3	2	6	248	0.00	29.679 
11:20	44.8	44.8	44.8	88	41.5	2	5	248	0.00	29.679 
11:25	44.8	44.8	44.8	88	41.5	2	5	248	0.00	29.679 
11:30	44.8	44.8	44.8	87	41.2	3	6	248	0.00	29.675 
11:35	44.9	44.9	44.9	87	41.3	3	6	248	0.00	29.675 
11:40	44.9	44.9	44.9	87	41.3	2	5	248	0.00	29.675 
11:45	44.9	44.9	44.9	87	41.3	2	5	248	0.00	29.661 
11:50	45.1	45.1	45.1	87	41.5	2	4	248	0.00	29.661 
11:55	45.1	45.1	45.1	87	41.5	2	5	248	0.00	29.661 
12:00	45.1	45.1	45.1	87	41.5	2	5	248	0.00	29.648 
12:05	45.1	45.1	45.1	86	41.2	3	7	248	0.00	29.648 
12:10	45.2	45.2	45.2	86	41.3	3	6	248	0.00	29.648 
12:15	45.2	45.2	45.2	86	41.3	3	6	248	0.00	29.646 
12:20	45.2	45.2	45.2	86	41.3	2	4	248	0.00	29.646 
12:25	45.2	45.2	45.2	86	41.3	2	4	248	0.00	29.646 
12:30	45.2	45.2	45.2	86	41.3	3	6	248	0.00	29.633 
12:35	45.2	43.3	45.2	85	41.0	4	10	248	0.00	29.633 
12:40	45.2	43.3	45.2	85	41.0	4	10	248	0.00	29.633 
12:45	45.2	45.2	45.2	85	41.0	3	6	248	0.00	29.628 
12:50	45.2	43.3	45.2	83	40.3	4	13	248	0.00	29.628 
12:55	45.1	43.2	45.1	83	40.3	4	12	248	0.00	29.628 
13:00	45.1	42.5	45.1	83	40.3	5	14	248	0.00	29.618 
13:05	45.1	45.1	45.1	82	39.9	3	9	248	0.00	29.618 
13:10	45.1	43.2	45.1	82	39.9	4	13	270	0.00	29.618 
13:15	45.1	42.5	45.1	82	39.9	5	16	270	0.00	29.610 
13:20	45.1	43.2	45.1	82	39.9	4	11	270	0.00	29.610 
13:25	45.1	45.1	45.1	83	40.3	3	12	248	0.00	29.610 
13:30	44.9	44.9	44.9	83	40.1	3	9	248	0.00	29.611 
13:35	44.9	44.9	44.9	84	40.4	3	10	248	0.00	29.611 
13:40	44.8	44.8	44.8	84	40.3	3	7	248	0.00	29.611 
13:45	44.6	42.6	44.6	85	40.4	4	13	270	0.00	29.608 
13:50	44.6	42.6	44.6	85	40.4	4	9	248	0.00	29.608 
13:55	44.6	41.9	44.6	85	40.4	5	12	270	0.00	29.608 
14:00	44.6	44.6	44.6	85	40.4	3	7	248	0.00	29.607 
14:05	44.5	44.5	44.5	86	40.6	3	10	248	0.00	29.607 
14:10	44.5	44.5	44.5	86	40.6	3	8	248	0.00	29.607 
14:15	44.3	44.3	44.3	86	40.4	3	6	270	0.00	29.602 
14:20	44.2	42.2	44.2	87	40.6	4	9	248	0.00	29.602 
14:25	44.2	42.2	44.2	87	40.6	4	10	248	0.00	29.602 
14:30	44.2	44.2	44.2	87	40.6	3	6	248	0.00	29.605 
14:35	44.2	44.2	44.2	87	40.6	3	9	270	0.00	29.605 
14:40	44.1	44.1	44.1	88	40.8	3	10	248	0.00	29.605 
14:45	43.8	41.7	43.8	89	40.8	4	11	270	0.00	29.612 
14:50	43.6	43.6	43.6	90	40.9	3	7	270	0.00	29.612 
14:55	43.5	43.5	43.5	90	40.8	3	9	248	0.00	29.612 
15:00	43.5	43.5	43.5	90	40.8	3	7	270	0.00	29.612 
15:05	43.5	43.5	43.5	90	40.8	3	7	270	0.00	29.612 
15:10	43.5	41.4	43.5	89	40.5	4	11	248	0.00	29.612 
15:15	43.5	41.4	43.5	88	40.2	4	9	270	0.00	29.616 
15:20	43.5	43.5	43.5	88	40.2	3	10	270	0.00	29.616 
15:25	43.5	43.5	43.5	88	40.2	2	7	248	0.00	29.616 
15:30	43.5	43.5	43.5	89	40.5	3	7	248	0.00	29.625 
15:35	43.3	43.3	43.3	89	40.3	3	9	270	0.00	29.625 
15:40	43.3	43.3	43.3	89	40.3	3	10	248	0.00	29.625 
15:45	43.2	43.2	43.2	90	40.5	3	11	270	0.00	29.634 
15:50	43.1	43.1	43.1	90	40.4	2	5	270	0.00	29.634 
15:55	43.1	43.1	43.1	91	40.7	2	6	248	0.00	29.634 
16:00	42.9	42.9	42.9	90	40.2	3	11	270	0.00	29.646 
16:05	42.9	42.9	42.9	90	40.2	3	10	248	0.00	29.646 
16:10	42.8	42.8	42.8	91	40.4	2	6	270	0.00	29.646 
16:15	42.8	42.8	42.8	91	40.4	3	6	270	0.00	29.648 
16:20	42.6	42.6	42.6	91	40.2	2	6	248	0.00	29.648 
16:25	42.6	42.6	42.6	91	40.2	3	7	270	0.00	29.648 
16:30	42.6	42.6	42.6	92	40.4	3	10	270	0.00	29.660 
16:35	42.5	42.5	42.5	92	40.3	3	9	248	0.00	29.660 
16:40	42.5	42.5	42.5	92	40.3	2	5	270	0.00	29.660 
16:45	42.6	42.6	42.6	92	40.4	3	10	270	0.00	29.664 
16:50	42.6	42.6	42.6	91	40.2	3	7	270	0.00	29.664 
16:55	42.6	42.6	42.6	91	40.2	3	9	270	0.00	29.664 
17:00	42.8	42.8	42.8	90	40.1	3	7	270	0.00	29.670 
17:05	42.8	40.6	42.8	89	39.8	4	9	270	0.00	29.670 
17:10	42.8	42.8	42.8	89	39.8	3	9	270	0.00	29.670 
17:15	42.8	42.8	42.8	88	39.5	3	7	270	0.00	29.678 
17:20	42.6	42.6	42.6	87	39.0	3	6	270	0.00	29.678 
17:25	42.5	42.5	42.5	87	38.9	3	7	270	0.00	29.678 
17:30	42.5	40.2	42.5	86	38.6	4	11	270	0.00	29.691 
17:35	42.3	42.3	42.3	86	38.4	3	6	270	0.00	29.691 
17:40	42.2	42.2	42.2	85	38.0	3	10	270	0.00	29.691 
17:45	42.2	42.2	42.2	85	38.0	3	7	270	0.00	29.702 
17:50	42.1	42.1	42.1	84	37.6	3	6	270	0.00	29.702 
17:55	42.1	42.1	42.1	83	37.3	3	6	292	0.00	29.702 
18:00	41.9	41.9	41.9	83	37.1	3	12	292	0.00	29.712 
18:05	41.8	41.8	41.8	84	37.3	3	6	292	0.00	29.712 
18:10	41.6	41.6	41.6	84	37.1	3	6	315	0.00	29.712 
18:15	41.5	39.1	41.5	83	36.7	4	10	270	0.00	29.723 
18:20	41.5	39.1	41.5	82	36.4	4	7	270	0.00	29.723 
18:25	41.3	38.8	41.3	81	35.9	4	12	270	0.00	29.723 
18:30	41.3	38.8	41.3	81	35.9	4	7	270	0.00	29.731 
18:35	41.1	38.6	41.1	81	35.7	4	8	292	0.00	29.731 
18:40	40.9	40.9	40.9	80	35.2	3	6	292	0.00	29.731 
18:45	40.9	38.4	40.9	80	35.2	4	9	270	0.00	29.742 
18:50	40.8	38.2	40.8	80	35.1	4	12	270	0.00	29.742 
18:55	40.6	38.0	40.6	80	34.9	4	7	270	0.00	29.742 
19:00	40.6	38.0	40.6	81	35.2	4	9	270	0.00	29.751 
19:05	40.5	37.9	40.5	81	35.1	4	8	270	0.00	29.751 
19:10	40.3	40.3	40.3	82	35.2	2	4	270	0.00	29.751 
19:15	40.2	40.2	40.2	82	35.2	3	6	270	0.00	29.758 
19:20	40.1	40.1	40.1	82	35.1	3	7	315	0.00	29.758 
19:25	40.1	40.1	40.1	83	35.4	3	10	270	0.00	29.758 
19:30	39.9	39.9	39.9	83	35.2	3	7	270	0.00	29.760 
19:35	39.8	39.8	39.8	84	35.4	3	5	248	0.00	29.760 
19:40	39.8	39.8	39.8	84	35.4	3	5	270	0.00	29.760 
19:45	39.6	39.6	39.6	84	35.2	3	7	270	0.00	29.760 
19:50	39.6	36.9	39.6	84	35.2	4	7	270	0.00	29.760 
19:55	39.6	36.9	39.6	84	35.2	4	8	270	0.00	29.760 
20:00	39.6	39.6	39.6	84	35.2	3	7	270	0.00	29.761 
20:05	39.6	39.6	39.6	83	34.9	3	6	270	0.00	29.761 
20:10	39.8	39.8	39.8	83	35.1	3	10	270	0.00	29.761 
20:15	39.8	39.8	39.8	82	34.8	3	11	270	0.00	29.761 
20:20	39.9	37.2	39.9	82	34.9	4	9	270	0.00	29.761 
20:25	39.9	37.2	39.9	82	34.9	4	10	270	0.00	29.761 
20:30	39.9	37.2	39.9	81	34.6	4	10	270	0.00	29.761 
20:35	40.1	37.4	40.1	82	35.1	4	10	270	0.00	29.761 
20:40	40.1	37.4	40.1	82	35.1	4	13	270	0.00	29.761 
20:45	39.9	36.4	39.9	82	34.9	5	12	270	0.00	29.761 
20:50	39.9	36.4	39.9	83	35.2	5	11	270	0.00	29.761 
20:55	39.8	37.1	39.8	84	35.4	4	13	270	0.00	29.761 
21:00	39.8	39.8	39.8	84	35.4	2	5	270	0.00	29.761 
21:05	39.8	39.8	39.8	84	35.4	2	4	270	0.00	29.761 
21:10	39.8	37.1	39.8	84	35.4	4	8	270	0.00	29.761 
21:15	39.8	37.1	39.8	86	36.0	4	9	270	0.00	29.761 
21:20	39.5	36.7	39.5	87	36.0	4	12	270	0.00	29.761 
21:25	39.2	36.4	39.2	88	35.9	4	10	270	0.00	29.761 
21:30	39.1	36.3	39.1	88	35.9	4	11	270	0.00	29.763 
21:35	38.8	35.1	38.8	88	35.6	5	14	270	0.00	29.763 
21:40	38.6	34.8	38.6	88	35.4	5	11	270	0.00	29.763 
21:45	38.5	34.7	38.5	88	35.3	5	15	270	0.00	29.763 
21:50	38.5	35.6	38.5	87	35.0	4	7	270	0.00	29.763 
21:55	38.5	35.6	38.5	88	35.3	4	13	270	0.00	29.763 
22:00	38.3	35.4	38.3	88	35.1	4	8	270	0.00	29.770 
22:05	38.3	35.4	38.3	88	35.1	4	8	270	0.00	29.770 
22:10	38.3	35.4	38.3	87	34.8	4	9	270	0.00	29.770 
22:15	38.3	35.4	38.3	87	34.8	4	7	270	0.00	29.772 
22:20	38.2	38.2	38.2	88	35.0	3	6	270	0.00	29.772 
22:25	38.0	35.0	38.0	88	34.8	4	12	270	0.00	29.772 
22:30	37.9	37.9	37.9	89	35.0	3	7	270	0.00	29.775 
22:35	37.8	37.8	37.8	89	34.9	3	13	270	0.00	29.775 
22:40	37.8	37.8	37.8	90	35.1	3	10	270	0.00	29.775 
22:45	37.6	34.5	37.6	90	34.9	4	10	270	0.00	29.776 
22:50	37.6	37.6	37.6	90	34.9	3	7	270	0.00	29.776 
22:55	37.6	37.6	37.6	90	34.9	3	6	270	0.00	29.776 
23:00	37.6	37.6	37.6	90	34.9	3	7	270	0.00	29.779 
23:05	37.5	37.5	37.5	90	34.8	3	6	270	0.00	29.779 
23:10	37.5	34.4	37.5	90	34.8	4	10	270	0.00	29.779 
23:15	37.5	37.5	37.5	90	34.8	3	9	270	0.00	29.784 
23:20	37.3	33.3	37.3	89	34.4	5	14	270	0.00	29.784 
23:25	37.3	37.3	37.3	89	34.4	3	11	270	0.00	29.784 
23:30	37.3	37.3	37.3	89	34.4	3	7	270	0.00	29.789 
23:35	37.3	37.3	37.3	88	34.1	3	9	270	0.00	29.789 
23:40	37.3	34.2	37.3	87	33.8	4	7	270	0.00	29.789 
23:45	37.3	34.2	37.3	87	33.8	4	7	270	0.00	29.789 
23:50	37.3	34.2	37.3	85	33.2	4	10	270	0.00	29.789 
23:55	37.2	34.1	37.2	84	32.8	4	8	270	0.00	29.789 

CoCoRaHS
IN-AL-39
A2 Web Hosting
Creative Commons License
GoDaddy
Look for:

loaded 2017-12-12 01:45:02 • last modified 2010-11-18 10:43:29
Privacy PolicyDisclaimer
• wx.awcolley.com is powered by PmWiki v.2002016 •
• all content (unless otherwise noted) © 2017 A W Colley